Time;durP1;ratioP1;P1;durP2;ratioP2;P2;SDS_P1;SDS_P2;PMS_P1;PMS_P2;Temp;Humidity;BMP_temperature;BMP_pressure;BME280_temperature;BME280_humidity;BME280_pressure;Samples;Min_cycle;Max_cycle;Signal;HPM_P1;HPM_P2
2022/06/30 00:01:29;;;;;;;5.68;2.50;;;25.60;64.20;;;;;;5033330;28;20112;-87
2022/06/30 00:03:54;;;;;;;5.80;2.20;;;25.60;64.30;;;;;;5033498;28;20581;-85
2022/06/30 00:06:20;;;;;;;5.20;2.17;;;25.50;64.30;;;;;;5032879;28;20058;-85
2022/06/30 00:08:46;;;;;;;11.02;2.28;;;25.50;64.60;;;;;;5032665;28;20028;-87
2022/06/30 00:11:12;;;;;;;7.00;2.35;;;25.50;64.80;;;;;;5033749;28;20123;-88
2022/06/30 00:13:39;;;;;;;4.28;2.28;;;25.40;64.80;;;;;;5037570;28;20021;-88
2022/06/30 00:16:05;;;;;;;5.47;1.85;;;25.30;64.80;;;;;;5053197;28;20039;-87
2022/06/30 00:18:32;;;;;;;4.18;2.00;;;25.30;65.10;;;;;;5053447;28;20036;-88
2022/06/30 00:20:58;;;;;;;5.97;2.15;;;25.20;65.40;;;;;;5070781;28;20476;-88
2022/06/30 00:23:23;;;;;;;6.25;2.15;;;25.10;66.10;;;;;;5052920;28;20071;-88
2022/06/30 00:25:49;;;;;;;9.90;2.33;;;25.10;66.70;;;;;;5047083;28;20055;-88
2022/06/30 00:28:18;;;;;;;6.82;2.22;;;25.00;67.30;;;;;;5033558;28;20116;-88
2022/06/30 00:30:44;;;;;;;2.88;1.98;;;24.90;67.80;;;;;;5032730;28;20240;-88
2022/06/30 00:33:10;;;;;;;5.85;2.17;;;24.80;67.60;;;;;;5033672;28;20091;-88
2022/06/30 00:35:36;;;;;;;6.10;2.30;;;24.70;67.00;;;;;;5033571;28;20033;-89
2022/06/30 00:38:02;;;;;;;6.88;1.80;;;24.60;67.10;;;;;;5033034;28;20057;-90
2022/06/30 00:40:28;;;;;;;2.78;1.67;;;24.50;66.90;;;;;;5033653;28;20115;-88
2022/06/30 00:42:54;;;;;;;5.47;1.98;;;24.50;66.90;;;;;;5050597;28;20083;-88
2022/06/30 00:45:19;;;;;;;3.90;2.08;;;24.50;67.20;;;;;;5033313;28;20047;-87
2022/06/30 00:47:45;;;;;;;4.22;2.10;;;24.40;67.80;;;;;;5032982;28;20186;-88
2022/06/30 00:50:11;;;;;;;4.40;2.03;;;24.40;68.30;;;;;;5032836;28;20408;-87
2022/06/30 00:52:37;;;;;;;5.05;2.20;;;24.30;68.70;;;;;;5050762;28;20104;-88
2022/06/30 00:55:05;;;;;;;3.70;1.65;;;24.30;69.20;;;;;;5033045;28;20040;-87
2022/06/30 00:57:32;;;;;;;3.50;1.75;;;24.20;69.70;;;;;;5030514;28;20033;-86
2022/06/30 01:00:00;;;;;;;5.18;1.90;;;24.20;70.00;;;;;;5032112;28;20033;-87
2022/06/30 01:02:27;;;;;;;5.53;2.00;;;24.10;70.20;;;;;;5031779;28;20443;-85
2022/06/30 01:04:55;;;;;;;6.60;2.50;;;24.00;70.10;;;;;;5029347;28;20044;-86
2022/06/30 01:07:22;;;;;;;7.63;2.08;;;23.90;70.60;;;;;;5046767;28;20025;-88
2022/06/30 01:12:44;;;;;;;8.18;1.50;;;23.80;70.60;;;;;;5050505;28;20417;-86
2022/06/30 01:15:11;;;;;;;7.10;2.08;;;23.80;70.90;;;;;;5031630;28;20299;-85
2022/06/30 01:17:37;;;;;;;4.38;1.98;;;23.70;70.90;;;;;;5034237;28;20330;-86
2022/06/30 01:20:03;;;;;;;4.35;2.00;;;23.70;71.50;;;;;;5035742;28;20056;-84
2022/06/30 01:22:29;;;;;;;7.63;2.13;;;23.60;71.70;;;;;;5034688;28;20432;-85
2022/06/30 01:24:55;;;;;;;11.68;2.17;;;23.60;71.90;;;;;;5035104;28;20053;-85
2022/06/30 01:27:20;;;;;;;6.32;2.10;;;23.50;72.10;;;;;;5035780;28;20028;-86
2022/06/30 01:29:48;;;;;;;4.20;1.65;;;23.50;72.20;;;;;;5035058;28;20029;-86
2022/06/30 01:32:13;;;;;;;8.52;3.17;;;23.40;72.20;;;;;;5035098;28;20082;-85
2022/06/30 01:34:39;;;;;;;4.18;1.83;;;23.40;72.00;;;;;;5035111;28;20025;-85
2022/06/30 01:37:05;;;;;;;7.95;2.17;;;23.30;73.10;;;;;;5035103;28;20538;-85
2022/06/30 01:39:31;;;;;;;10.13;1.83;;;23.30;72.60;;;;;;5035636;28;20028;-89
2022/06/30 01:41:59;;;;;;;7.65;2.65;;;23.20;71.90;;;;;;5036680;28;20103;-90
2022/06/30 01:44:24;;;;;;;7.85;2.13;;;23.20;71.50;;;;;;5036150;28;20037;-88
2022/06/30 01:46:51;;;;;;;14.15;2.10;;;23.20;70.90;;;;;;5035690;28;20031;-88
2022/06/30 01:49:17;;;;;;;5.78;2.00;;;23.20;71.00;;;;;;5035984;28;20119;-88
2022/06/30 01:51:43;;;;;;;4.70;2.22;;;23.20;71.50;;;;;;5035973;28;20071;-88
2022/06/30 01:54:09;;;;;;;5.78;1.80;;;23.20;71.50;;;;;;5035794;28;20056;-88
2022/06/30 01:56:35;;;;;;;4.10;2.15;;;23.20;71.70;;;;;;5036035;28;20564;-88
2022/06/30 01:59:01;;;;;;;7.68;2.05;;;23.20;72.30;;;;;;5035256;28;20029;-86
2022/06/30 02:01:27;;;;;;;2.08;1.48;;;23.10;72.80;;;;;;5035777;28;20555;-87
2022/06/30 02:03:53;;;;;;;4.38;2.25;;;23.10;73.20;;;;;;5035426;28;20063;-87
2022/06/30 02:06:19;;;;;;;9.38;2.10;;;23.10;74.40;;;;;;5035503;28;20485;-87
2022/06/30 02:08:45;;;;;;;3.47;1.67;;;23.10;74.30;;;;;;5034869;28;20037;-87
2022/06/30 02:11:10;;;;;;;7.53;2.30;;;23.10;73.60;;;;;;5035839;28;20021;-87
2022/06/30 02:13:36;;;;;;;3.45;1.98;;;23.00;73.60;;;;;;5035029;28;20033;-86
2022/06/30 02:16:02;;;;;;;6.35;1.73;;;23.00;73.20;;;;;;5034559;28;20025;-86
2022/06/30 02:18:28;;;;;;;9.45;2.08;;;23.10;72.30;;;;;;5034829;28;20115;-86
2022/06/30 02:20:53;;;;;;;19.88;2.88;;;23.00;72.40;;;;;;5052253;28;20021;-86
2022/06/30 02:23:19;;;;;;;6.22;2.22;;;23.00;72.50;;;;;;5034477;28;20102;-86
2022/06/30 02:25:45;;;;;;;5.05;2.28;;;23.00;72.60;;;;;;5035556;28;20039;-87
2022/06/30 02:28:11;;;;;;;6.95;1.98;;;23.00;72.50;;;;;;5033932;28;20033;-88
2022/06/30 02:30:36;;;;;;;4.65;2.20;;;23.00;73.10;;;;;;5053154;28;20029;-85
2022/06/30 02:33:03;;;;;;;4.20;2.20;;;23.00;73.50;;;;;;5051741;28;20410;-85
2022/06/30 02:35:29;;;;;;;6.38;1.75;;;22.90;73.60;;;;;;5052354;28;20021;-86
2022/06/30 02:37:56;;;;;;;10.07;2.20;;;22.90;73.80;;;;;;5052756;28;20497;-87
2022/06/30 02:40:22;;;;;;;4.50;2.25;;;22.90;74.50;;;;;;5035288;28;20029;-85
2022/06/30 02:42:47;;;;;;;6.35;2.15;;;22.90;74.60;;;;;;5053062;28;20635;-88
2022/06/30 02:45:13;;;;;;;4.88;2.05;;;22.80;74.80;;;;;;5053900;28;20121;-91
2022/06/30 02:47:41;;;;;;;3.42;1.58;;;22.70;75.00;;;;;;5058445;28;20021;-88
2022/06/30 02:50:10;;;;;;;6.35;2.25;;;22.70;75.30;;;;;;5044791;28;20028;-89
2022/06/30 02:52:36;;;;;;;7.32;1.60;;;22.70;76.30;;;;;;5023240;28;20029;-87
2022/06/30 02:55:03;;;;;;;4.65;1.95;;;22.70;76.70;;;;;;5038495;28;20025;-89
2022/06/30 02:57:29;;;;;;;3.35;1.90;;;22.60;77.10;;;;;;5036955;28;20029;-90
2022/06/30 02:59:56;;;;;;;4.88;1.88;;;22.70;77.10;;;;;;5038252;28;20021;-89
2022/06/30 03:02:22;;;;;;;9.18;1.90;;;22.70;77.20;;;;;;5037650;28;20025;-89
2022/06/30 03:04:48;;;;;;;6.00;2.00;;;22.70;77.30;;;;;;5034352;28;20479;-90
2022/06/30 03:07:14;;;;;;;4.20;2.00;;;22.70;77.20;;;;;;5052216;28;20025;-89
2022/06/30 03:09:40;;;;;;;6.25;2.17;;;22.70;77.00;;;;;;5034920;28;20512;-88
2022/06/30 03:12:06;;;;;;;5.07;1.98;;;22.70;77.30;;;;;;5034543;28;20547;-86
2022/06/30 03:14:31;;;;;;;3.33;1.98;;;22.80;77.40;;;;;;5033841;28;20056;-85
2022/06/30 03:16:57;;;;;;;6.15;2.42;;;22.80;77.50;;;;;;5033506;28;20470;-88
2022/06/30 03:19:23;;;;;;;9.10;2.30;;;22.80;78.00;;;;;;5034081;28;20033;-88
2022/06/30 03:21:49;;;;;;;14.15;2.28;;;22.80;77.90;;;;;;5033513;28;20021;-88
2022/06/30 03:24:15;;;;;;;9.98;2.55;;;22.80;78.10;;;;;;5032980;28;20092;-85
2022/06/30 03:26:41;;;;;;;14.63;2.58;;;22.90;78.50;;;;;;5033892;28;20448;-88
2022/06/30 03:29:06;;;;;;;6.78;2.60;;;23.00;78.40;;;;;;5033907;28;20025;-89
2022/06/30 03:31:33;;;;;;;4.53;2.05;;;23.00;78.60;;;;;;5033967;28;20573;-88
2022/06/30 03:33:58;;;;;;;9.65;2.25;;;23.00;78.60;;;;;;5034380;28;20237;-89
2022/06/30 03:36:24;;;;;;;5.25;2.30;;;23.10;78.80;;;;;;5034161;28;20400;-89
2022/06/30 03:38:50;;;;;;;6.63;2.30;;;23.10;78.60;;;;;;5033282;28;20029;-88
2022/06/30 03:41:16;;;;;;;8.13;2.65;;;23.10;78.40;;;;;;5033718;28;20028;-86
2022/06/30 03:43:41;;;;;;;10.48;2.28;;;23.20;79.20;;;;;;5034039;28;20051;-88
2022/06/30 03:46:07;;;;;;;5.93;2.00;;;23.30;79.40;;;;;;5033913;28;20017;-89
2022/06/30 03:48:35;;;;;;;3.83;2.20;;;23.40;79.40;;;;;;5034129;28;20025;-88
2022/06/30 03:51:04;;;;;;;8.40;2.42;;;23.40;79.20;;;;;;5033138;28;20558;-89
2022/06/30 03:53:29;;;;;;;5.88;2.35;;;23.50;78.60;;;;;;5033661;28;20043;-88
2022/06/30 03:55:57;;;;;;;5.65;2.30;;;23.50;79.10;;;;;;5033196;28;20435;-89
2022/06/30 03:58:23;;;;;;;13.45;2.30;;;23.60;78.10;;;;;;5051478;28;20021;-88
2022/06/30 04:00:49;;;;;;;4.85;2.05;;;23.70;78.80;;;;;;5033819;28;20120;-87
2022/06/30 04:03:14;;;;;;;6.93;2.17;;;23.80;78.90;;;;;;5033550;28;20120;-87
2022/06/30 04:05:40;;;;;;;5.93;2.20;;;23.90;78.80;;;;;;5033267;28;20230;-85
2022/06/30 04:08:07;;;;;;;7.85;2.13;;;24.00;78.40;;;;;;5032310;28;20032;-88
2022/06/30 04:10:33;;;;;;;4.30;2.05;;;24.20;78.20;;;;;;5033079;28;20120;-88
2022/06/30 04:13:00;;;;;;;4.97;1.90;;;24.50;77.40;;;;;;5033295;28;20489;-87
2022/06/30 04:15:26;;;;;;;7.30;1.63;;;24.70;76.70;;;;;;5033141;28;20059;-87
2022/06/30 04:17:52;;;;;;;11.35;2.28;;;24.90;76.00;;;;;;5033273;28;20029;-89
2022/06/30 04:20:18;;;;;;;8.48;2.47;;;25.10;76.00;;;;;;5050557;28;20098;-87
2022/06/30 04:22:46;;;;;;;5.05;1.90;;;25.20;76.10;;;;;;5033012;28;20021;-86
2022/06/30 04:25:12;;;;;;;8.18;2.28;;;25.30;75.00;;;;;;5033479;28;20059;-87
2022/06/30 04:27:41;;;;;;;12.98;2.15;;;25.50;74.20;;;;;;5032846;28;20036;-88
2022/06/30 04:30:07;;;;;;;20.13;2.90;;;25.70;73.40;;;;;;5030223;28;20082;-87
2022/06/30 04:32:39;;;;;;;17.35;2.97;;;25.80;73.90;;;;;;5031197;28;20482;-89
2022/06/30 04:35:07;;;;;;;12.13;2.40;;;25.90;74.80;;;;;;5051095;28;20044;-90
2022/06/30 04:37:33;;;;;;;6.22;2.47;;;26.10;74.60;;;;;;5033062;28;20021;-90
2022/06/30 04:42:43;;;;;;;39.67;5.05;;;26.40;73.90;;;;;;5051443;28;20091;-87
2022/06/30 04:45:09;;;;;;;9.02;2.45;;;26.60;74.40;;;;;;5050350;28;20489;-87
2022/06/30 04:47:36;;;;;;;6.07;2.03;;;26.70;73.40;;;;;;5050367;28;20025;-87
2022/06/30 04:50:06;;;;;;;6.25;1.85;;;26.90;72.30;;;;;;5032325;28;20033;-88
2022/06/30 04:52:33;;;;;;;6.05;1.52;;;27.10;71.50;;;;;;5034913;28;20021;-91
2022/06/30 04:54:59;;;;;;;10.07;2.15;;;27.20;71.50;;;;;;5036140;28;20033;-88
2022/06/30 04:57:24;;;;;;;12.48;2.00;;;27.30;71.50;;;;;;5037205;28;20063;-88
2022/06/30 04:59:50;;;;;;;6.38;2.20;;;27.40;72.20;;;;;;5070921;28;20398;-87
2022/06/30 05:02:16;;;;;;;4.88;2.00;;;27.60;71.20;;;;;;5038469;28;20466;-87
2022/06/30 05:04:44;;;;;;;10.10;1.90;;;27.80;70.70;;;;;;5036346;28;20043;-86
2022/06/30 05:07:11;;;;;;;7.47;2.70;;;28.00;70.00;;;;;;5035479;28;20029;-86
2022/06/30 05:09:36;;;;;;;7.25;3.08;;;28.10;69.30;;;;;;5036129;28;20123;-86
2022/06/30 05:12:03;;;;;;;6.10;2.65;;;28.20;69.10;;;;;;5036333;28;20116;-88
2022/06/30 05:14:29;;;;;;;12.48;2.67;;;28.30;68.80;;;;;;5053661;28;20062;-87
2022/06/30 05:16:55;;;;;;;10.63;2.55;;;28.50;68.90;;;;;;5035546;28;20075;-87
2022/06/30 05:19:20;;;;;;;10.75;2.60;;;28.70;68.80;;;;;;5036576;28;20029;-89
2022/06/30 05:21:46;;;;;;;9.77;2.28;;;28.90;69.40;;;;;;5035736;28;20013;-88
2022/06/30 05:26:56;;;;;;;27.63;3.17;;;29.50;68.40;;;;;;5053138;28;20607;-84
2022/06/30 05:29:21;;;;;;;7.18;2.22;;;29.80;67.90;;;;;;5033002;28;20033;-86
2022/06/30 05:31:47;;;;;;;12.27;1.75;;;29.90;68.00;;;;;;5052879;28;20024;-89
2022/06/30 05:34:13;;;;;;;6.32;2.45;;;30.10;67.30;;;;;;5035850;28;20029;-88
2022/06/30 05:36:38;;;;;;;8.40;2.22;;;30.20;65.90;;;;;;5036380;28;20108;-87
2022/06/30 05:39:04;;;;;;;6.10;2.05;;;30.30;66.50;;;;;;5035251;28;20132;-89
2022/06/30 05:41:29;;;;;;;6.47;1.95;;;30.40;66.20;;;;;;5035399;28;20048;-86
2022/06/30 05:43:55;;;;;;;7.22;2.42;;;30.50;65.50;;;;;;5031749;28;20164;-85
2022/06/30 05:46:21;;;;;;;8.75;2.35;;;30.80;64.20;;;;;;5040880;28;20021;-85
2022/06/30 05:48:46;;;;;;;8.25;2.20;;;31.10;63.00;;;;;;5072118;28;20476;-85
2022/06/30 05:51:12;;;;;;;17.95;2.95;;;31.50;62.30;;;;;;5052065;28;20034;-83
2022/06/30 05:53:38;;;;;;;7.75;2.38;;;31.90;61.50;;;;;;5052038;28;20396;-84
2022/06/30 05:56:04;;;;;;;6.88;2.65;;;32.30;59.60;;;;;;5033756;28;20029;-83
2022/06/30 05:58:30;;;;;;;8.85;1.90;;;33.10;57.90;;;;;;5033735;28;20025;-84
2022/06/30 06:00:55;;;;;;;3.78;2.10;;;34.40;55.40;;;;;;5033504;28;20043;-83
2022/06/30 06:03:21;;;;;;;8.93;1.92;;;35.60;51.40;;;;;;5032480;28;20033;-84
2022/06/30 06:05:47;;;;;;;5.50;1.98;;;36.90;46.90;;;;;;5032592;28;20021;-83
2022/06/30 06:08:12;;;;;;;9.32;1.58;;;38.00;43.00;;;;;;5032844;28;20052;-84
2022/06/30 06:10:38;;;;;;;11.27;1.65;;;38.90;37.90;;;;;;5050199;28;20116;-83
2022/06/30 06:13:05;;;;;;;6.97;2.17;;;39.70;35.80;;;;;;5050404;28;20032;-85
2022/06/30 06:15:31;;;;;;;6.35;2.15;;;40.40;36.70;;;;;;5032098;28;20055;-83
2022/06/30 06:17:56;;;;;;;8.88;1.98;;;40.80;34.40;;;;;;5032106;28;20748;-85
2022/06/30 06:20:22;;;;;;;15.60;2.35;;;41.50;34.60;;;;;;5032396;28;20029;-84
2022/06/30 06:22:48;;;;;;;10.20;2.33;;;41.60;33.40;;;;;;5031718;28;20515;-85
2022/06/30 06:25:15;;;;;;;9.23;2.50;;;41.90;32.70;;;;;;5049886;28;20056;-85
2022/06/30 06:27:41;;;;;;;6.72;2.55;;;42.00;31.80;;;;;;5028349;28;20083;-84
2022/06/30 06:30:09;;;;;;;6.60;2.45;;;42.30;31.20;;;;;;5031418;28;20024;-84
2022/06/30 06:32:35;;;;;;;16.73;2.78;;;42.20;30.50;;;;;;5028148;28;20120;-84
2022/06/30 06:35:00;;;;;;;3.38;2.25;;;42.40;30.00;;;;;;5011517;28;20577;-86
2022/06/30 06:37:26;;;;;;;8.13;3.08;;;42.50;29.70;;;;;;5032158;28;20769;-83
2022/06/30 06:39:52;;;;;;;6.05;2.20;;;42.60;29.80;;;;;;5032079;28;20112;-85
2022/06/30 06:42:18;;;;;;;8.13;2.42;;;42.60;29.70;;;;;;5041309;28;20056;-84
2022/06/30 06:44:44;;;;;;;10.10;2.25;;;42.50;29.50;;;;;;5025465;28;20033;-85
2022/06/30 06:47:09;;;;;;;7.00;2.40;;;42.60;29.10;;;;;;5048640;28;20059;-85
2022/06/30 06:49:35;;;;;;;7.88;2.55;;;42.80;29.10;;;;;;5019197;28;20032;-83
2022/06/30 06:52:01;;;;;;;6.00;2.38;;;43.00;29.10;;;;;;5049752;28;20021;-84
2022/06/30 06:54:26;;;;;;;11.00;2.30;;;43.20;28.60;;;;;;5031795;28;20485;-85
2022/06/30 06:56:52;;;;;;;8.18;2.67;;;43.20;28.30;;;;;;5048871;28;20096;-85
2022/06/30 06:59:18;;;;;;;11.32;2.13;;;43.00;28.20;;;;;;5031197;28;20036;-85
2022/06/30 07:01:43;;;;;;;6.55;2.30;;;43.10;28.80;;;;;;5031228;28;20483;-85
2022/06/30 07:04:09;;;;;;;4.60;2.47;;;43.10;28.60;;;;;;5031600;28;20501;-85
2022/06/30 07:06:35;;;;;;;8.88;2.30;;;43.00;28.60;;;;;;5031564;28;20070;-85
2022/06/30 07:09:02;;;;;;;10.45;2.28;;;43.20;28.60;;;;;;5030643;28;20082;-83
2022/06/30 07:11:27;;;;;;;8.70;1.85;;;43.70;27.10;;;;;;5048846;28;20021;-84
2022/06/30 07:13:53;;;;;;;7.10;1.90;;;43.50;27.60;;;;;;5031294;28;20025;-83
2022/06/30 07:16:19;;;;;;;4.95;1.95;;;43.30;27.90;;;;;;5030747;28;20036;-85
2022/06/30 07:18:44;;;;;;;6.05;2.00;;;43.50;27.00;;;;;;5031227;28;20163;-84
2022/06/30 07:21:10;;;;;;;6.40;1.90;;;43.10;27.20;;;;;;5029759;28;20551;-84
2022/06/30 07:23:36;;;;;;;5.95;1.83;;;43.30;26.40;;;;;;5030051;28;20131;-84
2022/06/30 07:26:02;;;;;;;16.63;2.15;;;42.90;26.20;;;;;;5030825;28;20040;-83
2022/06/30 07:28:28;;;;;;;5.28;1.98;;;42.70;26.00;;;;;;5030553;28;20088;-83
2022/06/30 07:30:53;;;;;;;11.95;2.17;;;42.30;26.20;;;;;;5030159;28;20115;-84
2022/06/30 07:33:19;;;;;;;4.50;1.80;;;42.20;27.10;;;;;;5030410;28;20044;-84
2022/06/30 07:35:45;;;;;;;7.57;1.83;;;42.50;27.10;;;;;;5030075;28;20037;-82
2022/06/30 07:38:11;;;;;;;4.10;1.85;;;42.90;25.50;;;;;;5026703;28;20032;-84
2022/06/30 07:40:37;;;;;;;3.60;1.90;;;43.20;24.90;;;;;;5041031;28;20025;-84
2022/06/30 07:43:03;;;;;;;3.42;1.80;;;43.50;25.50;;;;;;5029762;28;20539;-85
2022/06/30 07:45:28;;;;;;;5.28;1.98;;;43.50;23.80;;;;;;5024515;28;20079;-83
2022/06/30 07:47:54;;;;;;;5.90;1.75;;;42.80;25.20;;;;;;5023232;28;20021;-84
2022/06/30 07:50:20;;;;;;;5.05;1.50;;;43.10;23.60;;;;;;5027223;28;20021;-85
2022/06/30 07:52:46;;;;;;;8.07;1.83;;;42.90;24.50;;;;;;5022506;28;20029;-85
2022/06/30 07:55:13;;;;;;;5.20;1.50;;;42.80;24.60;;;;;;5028998;28;20017;-85
2022/06/30 07:57:42;;;;;;;4.65;1.45;;;43.10;24.60;;;;;;5028094;28;20082;-84
2022/06/30 08:00:09;;;;;;;3.15;1.70;;;43.20;24.00;;;;;;5029558;28;20055;-85
2022/06/30 08:02:34;;;;;;;2.25;1.50;;;43.10;23.80;;;;;;5048222;28;20029;-86
2022/06/30 08:05:00;;;;;;;5.97;1.85;;;42.70;23.90;;;;;;5031761;28;20047;-87
2022/06/30 08:07:26;;;;;;;4.63;1.30;;;42.20;24.70;;;;;;5029537;28;20025;-86
2022/06/30 08:09:52;;;;;;;3.88;1.75;;;42.20;24.80;;;;;;5011938;28;20476;-86
2022/06/30 08:12:17;;;;;;;2.78;1.70;;;42.40;24.30;;;;;;5028360;28;20029;-85
2022/06/30 08:14:43;;;;;;;6.45;1.83;;;42.30;24.10;;;;;;5041126;28;20071;-85
2022/06/30 08:17:09;;;;;;;4.20;1.73;;;41.80;24.20;;;;;;5031743;28;20087;-85
2022/06/30 08:19:34;;;;;;;4.15;1.77;;;41.70;25.10;;;;;;5031194;28;20033;-87
2022/06/30 08:22:00;;;;;;;4.47;1.63;;;41.60;25.10;;;;;;5032066;28;20024;-85
2022/06/30 08:24:27;;;;;;;6.25;1.60;;;42.10;26.10;;;;;;5025910;28;20140;-85
2022/06/30 08:26:52;;;;;;;3.78;1.67;;;42.40;25.20;;;;;;5050731;28;20017;-85
2022/06/30 08:29:18;;;;;;;15.73;2.30;;;42.80;24.60;;;;;;5035351;28;20040;-85
2022/06/30 08:31:44;;;;;;;4.28;1.60;;;42.80;24.80;;;;;;5034625;28;20664;-85
2022/06/30 08:34:09;;;;;;;5.97;1.52;;;42.90;23.80;;;;;;5033490;28;20148;-85
2022/06/30 08:36:35;;;;;;;7.72;1.75;;;42.50;24.50;;;;;;5030703;28;20044;-82
2022/06/30 08:39:01;;;;;;;4.53;1.83;;;42.40;25.20;;;;;;5035510;28;20032;-85
2022/06/30 08:44:12;;;;;;;7.05;1.70;;;42.40;24.50;;;;;;5052911;28;20110;-87
2022/06/30 08:46:38;;;;;;;6.25;1.77;;;42.60;24.80;;;;;;5035201;28;20029;-87
2022/06/30 08:49:04;;;;;;;7.82;1.70;;;42.90;24.70;;;;;;5034757;28;20112;-84
2022/06/30 08:51:33;;;;;;;5.68;1.58;;;43.20;23.90;;;;;;5034836;28;20060;-86
2022/06/30 08:54:00;;;;;;;11.27;1.77;;;43.20;24.10;;;;;;5035679;28;20108;-85
2022/06/30 08:56:37;;;;;;;4.45;1.63;;;43.20;24.10;;;;;;5035482;28;20028;-86
2022/06/30 08:59:04;;;;;;;3.42;1.58;;;43.00;24.10;;;;;;5052563;28;20030;-85
2022/06/30 09:01:31;;;;;;;12.48;1.60;;;43.20;23.60;;;;;;5034073;28;20124;-86
2022/06/30 09:03:57;;;;;;;3.80;1.77;;;43.10;24.00;;;;;;5034464;28;20037;-86
2022/06/30 09:06:23;;;;;;;7.90;1.75;;;42.80;24.20;;;;;;5052992;28;20025;-86
2022/06/30 09:08:50;;;;;;;9.93;1.70;;;42.70;24.10;;;;;;5035017;28;20051;-87
2022/06/30 09:11:16;;;;;;;7.93;1.50;;;42.70;24.50;;;;;;5035174;28;20532;-85
2022/06/30 09:13:48;;;;;;;11.52;2.10;;;42.80;24.40;;;;;;5035054;28;20074;-84
2022/06/30 09:16:15;;;;;;;4.05;1.80;;;43.20;24.20;;;;;;5034283;28;20063;-88
2022/06/30 09:18:40;;;;;;;3.95;2.03;;;43.50;24.30;;;;;;5035011;28;20067;-85
2022/06/30 09:21:17;;;;;;;3.30;1.50;;;43.50;24.40;;;;;;5052319;28;20544;-86
2022/06/30 09:23:45;;;;;;;6.00;2.05;;;42.90;23.90;;;;;;5034484;28;20049;-86
2022/06/30 09:26:21;;;;;;;8.48;1.67;;;42.60;24.30;;;;;;5035198;28;20060;-86
2022/06/30 09:28:54;;;;;;;4.72;1.75;;;42.10;24.50;;;;;;5034361;28;20025;-86
2022/06/30 09:31:38;;;;;;;6.93;2.08;;;42.10;24.30;;;;;;5023818;28;20428;-85
2022/06/30 09:34:21;;;;;;;11.18;2.10;;;42.10;24.50;;;;;;5018560;28;20037;-86
2022/06/30 09:36:51;;;;;;;4.18;1.70;;;41.80;24.60;;;;;;5014905;28;20132;-85
2022/06/30 09:39:19;;;;;;;4.28;2.35;;;41.60;25.00;;;;;;5023409;28;20627;-85
2022/06/30 09:41:47;;;;;;;8.15;2.15;;;41.60;25.40;;;;;;5021406;28;20036;-87
2022/06/30 09:44:16;;;;;;;6.20;1.80;;;41.40;24.80;;;;;;5019405;28;20672;-86
2022/06/30 09:47:08;;;;;;;27.65;3.88;;;41.40;25.40;;;;;;5017909;28;20042;-87
2022/06/30 09:49:41;;;;;;;104.25;6.18;;;41.00;25.10;;;;;;5016072;28;20030;-85
2022/06/30 09:52:24;;;;;;;167.10;13.50;;;40.80;25.20;;;;;;5018603;28;20117;-85
2022/06/30 09:54:57;;;;;;;13.73;1.77;;;40.60;25.50;;;;;;5034118;28;20041;-86
2022/06/30 09:57:29;;;;;;;53.55;5.93;;;40.30;25.40;;;;;;5013025;28;20048;-86
2022/06/30 10:00:04;;;;;;;24.98;3.10;;;40.50;26.00;;;;;;5021378;28;20056;-85
2022/06/30 10:02:39;;;;;;;250.32;18.25;;;40.50;25.40;;;;;;5034142;28;20111;-86
2022/06/30 10:05:06;;;;;;;8.98;2.10;;;40.20;25.40;;;;;;5019791;28;20050;-85
2022/06/30 10:07:36;;;;;;;3.65;1.80;;;40.00;25.60;;;;;;5017354;28;20033;-86
2022/06/30 10:10:09;;;;;;;4.30;1.65;;;39.60;26.20;;;;;;5020487;28;20042;-86
2022/06/30 10:12:36;;;;;;;7.40;2.00;;;39.10;26.20;;;;;;5035353;28;20045;-86
2022/06/30 10:15:02;;;;;;;4.50;1.70;;;38.80;27.50;;;;;;5021123;28;20529;-86
2022/06/30 10:17:32;;;;;;;3.05;1.90;;;38.80;26.90;;;;;;5033863;28;20029;-87
2022/06/30 10:19:58;;;;;;;3.00;1.50;;;38.70;26.90;;;;;;5034437;28;20405;-85
2022/06/30 10:22:27;;;;;;;5.70;1.75;;;38.50;27.00;;;;;;5034801;28;20025;-86
2022/06/30 10:24:54;;;;;;;5.47;1.60;;;38.40;26.90;;;;;;5034330;28;20082;-85
2022/06/30 10:27:21;;;;;;;3.33;1.60;;;38.30;27.20;;;;;;5034139;28;20057;-86
2022/06/30 10:29:53;;;;;;;4.10;2.15;;;37.90;27.60;;;;;;5051921;28;20040;-85
2022/06/30 10:32:43;;;;;;;7.97;2.05;;;37.70;28.20;;;;;;5033816;28;20074;-86
2022/06/30 10:35:21;;;;;;;15.27;1.60;;;37.60;28.90;;;;;;5034632;28;20489;-85
2022/06/30 10:37:54;;;;;;;15.73;1.75;;;37.50;27.50;;;;;;5034131;28;20029;-85
2022/06/30 10:40:44;;;;;;;12.57;1.88;;;37.50;28.70;;;;;;5042526;28;20074;-84
2022/06/30 10:43:10;;;;;;;6.95;1.70;;;37.40;28.20;;;;;;5070876;28;20428;-85
2022/06/30 10:45:36;;;;;;;5.70;1.80;;;37.40;27.80;;;;;;5071997;28;20044;-85
2022/06/30 10:48:09;;;;;;;3.67;1.77;;;37.30;28.50;;;;;;5047254;28;20043;-85
2022/06/30 10:50:40;;;;;;;16.13;2.10;;;37.10;28.20;;;;;;5033384;28;20036;-86
2022/06/30 10:53:37;;;;;;;35.45;2.70;;;37.10;29.10;;;;;;5051458;28;20020;-85
2022/06/30 10:56:04;;;;;;;6.03;1.73;;;37.10;29.00;;;;;;5028733;28;20032;-86
2022/06/30 10:58:30;;;;;;;3.85;1.52;;;37.00;29.00;;;;;;5034326;28;20024;-85
2022/06/30 11:01:00;;;;;;;10.65;1.70;;;36.90;28.70;;;;;;5052841;28;20044;-85
2022/06/30 11:03:35;;;;;;;4.43;1.65;;;36.90;28.70;;;;;;5050396;28;20025;-85
2022/06/30 11:06:05;;;;;;;7.43;1.60;;;37.00;28.90;;;;;;5032899;28;20029;-87
2022/06/30 11:08:38;;;;;;;6.45;1.50;;;36.80;28.70;;;;;;5033146;28;20489;-85
2022/06/30 11:11:22;;;;;;;5.82;1.80;;;36.80;29.00;;;;;;5033534;28;20469;-84
2022/06/30 11:14:11;;;;;;;2.72;1.50;;;36.60;29.00;;;;;;5014146;28;20025;-85
2022/06/30 11:16:38;;;;;;;7.50;2.33;;;36.80;28.60;;;;;;5012632;28;20392;-85
2022/06/30 11:19:16;;;;;;;6.47;1.23;;;36.80;28.40;;;;;;5032950;28;20028;-85
2022/06/30 11:21:43;;;;;;;3.97;1.42;;;36.80;28.60;;;;;;5031373;28;20053;-86
2022/06/30 11:24:11;;;;;;;6.82;1.63;;;36.70;28.00;;;;;;5029836;28;20067;-85
2022/06/30 11:29:26;;;;;;;6.72;1.70;;;36.50;28.70;;;;;;5051540;28;20043;-85
2022/06/30 11:31:58;;;;;;;8.70;1.77;;;36.50;29.10;;;;;;5051645;28;20024;-87
2022/06/30 11:34:24;;;;;;;3.65;1.77;;;36.80;28.90;;;;;;5033847;28;20029;-86
2022/06/30 11:36:50;;;;;;;3.67;1.48;;;36.80;28.20;;;;;;5033251;28;20087;-86
2022/06/30 11:39:18;;;;;;;7.00;1.52;;;36.80;28.70;;;;;;5033720;28;20037;-86
2022/06/30 11:41:55;;;;;;;2.70;1.60;;;36.90;29.20;;;;;;5051372;28;20079;-87
2022/06/30 11:44:38;;;;;;;5.50;1.40;;;36.90;29.00;;;;;;5033035;28;20040;-85
2022/06/30 11:47:06;;;;;;;7.85;1.80;;;37.10;27.40;;;;;;5032883;28;20056;-84
2022/06/30 11:50:01;;;;;;;3.83;1.27;;;37.00;27.60;;;;;;5032644;28;20025;-86
2022/06/30 11:52:34;;;;;;;1.77;1.00;;;37.00;26.50;;;;;;5033176;28;20067;-86
2022/06/30 11:55:04;;;;;;;11.40;1.42;;;37.00;26.50;;;;;;5033037;28;20224;-86
2022/06/30 11:57:34;;;;;;;4.13;1.30;;;37.00;26.80;;;;;;5033056;28;20021;-86
2022/06/30 12:00:09;;;;;;;3.50;1.48;;;37.00;27.10;;;;;;5033015;28;20025;-86
2022/06/30 12:02:36;;;;;;;5.97;1.33;;;37.10;27.60;;;;;;5033199;28;20037;-86
2022/06/30 12:05:05;;;;;;;5.30;1.50;;;37.20;27.50;;;;;;5050611;28;20044;-86
2022/06/30 12:07:35;;;;;;;11.60;2.08;;;37.30;27.00;;;;;;5032590;28;20025;-86
2022/06/30 12:10:01;;;;;;;3.40;1.30;;;37.20;27.10;;;;;;5032435;28;20048;-87
2022/06/30 12:12:28;;;;;;;6.82;1.58;;;37.00;27.10;;;;;;5033156;28;20025;-85
2022/06/30 12:14:56;;;;;;;3.15;1.50;;;37.00;27.40;;;;;;5032743;28;20116;-87
2022/06/30 12:17:22;;;;;;;3.03;1.73;;;36.80;27.20;;;;;;5032722;28;20163;-84
2022/06/30 12:19:50;;;;;;;9.15;1.17;;;36.90;28.30;;;;;;5033163;28;20029;-86
2022/06/30 12:22:16;;;;;;;2.13;1.50;;;37.00;26.30;;;;;;5032532;28;20033;-86
2022/06/30 12:24:45;;;;;;;3.85;2.10;;;37.00;26.50;;;;;;5032679;28;20180;-87
2022/06/30 12:27:32;;;;;;;6.50;1.85;;;37.10;26.80;;;;;;5032222;28;20025;-85
2022/06/30 12:30:05;;;;;;;9.63;1.50;;;37.10;26.80;;;;;;5050270;28;20029;-86
2022/06/30 12:32:30;;;;;;;6.53;1.65;;;36.90;27.30;;;;;;5031328;28;20021;-85
2022/06/30 12:35:00;;;;;;;5.57;1.33;;;36.90;27.60;;;;;;5032241;28;20029;-85
2022/06/30 12:37:40;;;;;;;5.93;1.70;;;37.00;27.80;;;;;;5032307;28;20025;-86
2022/06/30 12:40:09;;;;;;;1.92;1.40;;;37.20;26.70;;;;;;5032207;28;20563;-87
2022/06/30 12:42:55;;;;;;;8.05;1.77;;;37.10;26.50;;;;;;5032226;28;20035;-86
2022/06/30 12:45:52;;;;;;;6.32;1.83;;;37.10;26.70;;;;;;5031842;28;20037;-87
2022/06/30 12:48:44;;;;;;;3.60;1.23;;;37.00;26.40;;;;;;5030487;28;20041;-85
2022/06/30 12:51:15;;;;;;;6.85;1.45;;;37.00;26.50;;;;;;5031964;28;20036;-86
2022/06/30 12:53:42;;;;;;;4.55;1.35;;;37.20;27.00;;;;;;5032437;28;20096;-85
2022/06/30 12:56:17;;;;;;;24.30;2.15;;;37.20;26.30;;;;;;5049571;28;20045;-85
2022/06/30 12:59:05;;;;;;;10.18;1.88;;;37.10;26.90;;;;;;5032092;28;20029;-85
2022/06/30 13:01:33;;;;;;;6.70;1.23;;;37.10;27.10;;;;;;5031499;28;20251;-84
2022/06/30 13:04:10;;;;;;;7.28;2.50;;;37.00;26.70;;;;;;5033567;28;20036;-83